Time;durP1;ratioP1;P1;durP2;ratioP2;P2;SDS_P1;SDS_P2;PMS_P1;PMS_P2;Temp;Humidity;BMP_temperature;BMP_pressure;BME280_temperature;BME280_humidity;BME280_pressure;Samples;Min_cycle;Max_cycle;Signal;HPM_P1;HPM_P2
2022/07/25 07:32:14;;;;;;;10.80;7.13;;;;;;;;;;5066532;28;20456;-66
2022/07/25 07:34:40;;;;;;;11.48;7.30;;;;;;;;;;5067484;28;20113;-64
2022/07/25 07:37:06;;;;;;;13.40;6.78;;;;;;;;;;5066695;28;20062;-63
2022/07/25 07:39:32;;;;;;;10.32;7.22;;;;;;;;;;5067116;28;20099;-64
2022/07/25 07:41:58;;;;;;;10.43;6.80;;;;;;;;;;5067174;28;20136;-61
2022/07/25 07:44:24;;;;;;;11.93;6.65;;;;;;;;;;5067896;28;20064;-61
2022/07/25 07:46:51;;;;;;;19.90;7.18;;;;;;;;;;5067732;28;20052;-63
2022/07/25 07:49:17;;;;;;;10.95;6.50;;;;;;;;;;5067747;28;20504;-65
2022/07/25 07:51:43;;;;;;;13.27;6.47;;;;;;;;;;5067993;28;20419;-61
2022/07/25 07:56:54;;;;;;;8.73;5.82;;;;;;;;;;5068076;28;20517;-63
2022/07/25 07:59:20;;;;;;;10.68;6.03;;;;;;;;;;5067971;28;20025;-63
2022/07/25 08:01:46;;;;;;;9.25;5.70;;;;;;;;;;5068100;28;20028;-63
2022/07/25 08:04:12;;;;;;;10.35;5.65;;;;;;;;;;5068036;28;20036;-63
2022/07/25 08:06:39;;;;;;;11.82;5.70;;;;;;;;;;5067716;28;20031;-64
2022/07/25 08:09:05;;;;;;;10.95;6.18;;;;;;;;;;5051332;28;20041;-64
2022/07/25 08:11:31;;;;;;;8.18;5.78;;;;;;;;;;5048056;28;20052;-63
2022/07/25 08:13:57;;;;;;;8.98;5.28;;;;;;;;;;5046495;28;20274;-63
2022/07/25 08:16:23;;;;;;;13.15;5.63;;;;;;;;;;5047496;28;20064;-63
2022/07/25 08:18:49;;;;;;;9.48;5.28;;;;;;;;;;5047594;28;20091;-62
2022/07/25 08:21:15;;;;;;;7.43;4.88;;;;;;;;;;5047374;28;20037;-63
2022/07/25 08:23:43;;;;;;;7.97;5.20;;;;;;;;;;5047294;28;20025;-62
2022/07/25 08:26:09;;;;;;;7.90;5.47;;;;;;;;;;5046041;28;20423;-63
2022/07/25 08:28:35;;;;;;;6.72;5.10;;;;;;;;;;5046996;28;20048;-62
2022/07/25 08:31:01;;;;;;;8.40;5.43;;;;;;;;;;5046757;28;20053;-62
2022/07/25 08:33:28;;;;;;;10.77;5.13;;;;;;;;;;5047347;28;20108;-63
2022/07/25 08:35:57;;;;;;;7.68;4.93;;;;;;;;;;5047610;28;20021;-62
2022/07/25 08:38:24;;;;;;;9.02;4.88;;;;;;;;;;5047078;28;20071;-62
2022/07/25 08:40:50;;;;;;;6.25;4.60;;;;;;;;;;5047470;28;20075;-62
2022/07/25 08:43:16;;;;;;;9.75;5.03;;;;;;;;;;5035420;28;20029;-62
2022/07/25 08:45:46;;;;;;;9.20;5.90;;;;;;;;;;5033966;28;20030;-62
2022/07/25 08:48:13;;;;;;;6.68;4.93;;;;;;;;;;5033814;28;20033;-62
2022/07/25 08:50:39;;;;;;;8.55;4.82;;;;;;;;;;5033607;28;20068;-63
2022/07/25 08:53:05;;;;;;;7.60;5.18;;;;;;;;;;5034178;28;20485;-62
2022/07/25 08:55:32;;;;;;;8.43;5.30;;;;;;;;;;5033760;28;20025;-62
2022/07/25 08:57:58;;;;;;;7.65;4.82;;;;;;;;;;5034375;28;20030;-62
2022/07/25 09:00:25;;;;;;;6.97;5.30;;;;;;;;;;5033765;28;20061;-62
2022/07/25 09:02:59;;;;;;;8.70;4.30;;;;;;;;;;5033132;28;20093;-63
2022/07/25 09:05:25;;;;;;;9.73;5.22;;;;;;;;;;5033900;28;20472;-62
2022/07/25 09:07:52;;;;;;;6.63;4.43;;;;;;;;;;5033231;28;20474;-62
2022/07/25 09:10:20;;;;;;;7.65;4.20;;;;;;;;;;5033464;28;20481;-62
2022/07/25 09:12:53;;;;;;;9.63;5.70;;;;;;;;;;5033249;28;20029;-64
2022/07/25 09:15:23;;;;;;;7.57;5.47;;;;;;;;;;5033751;28;20107;-63
2022/07/25 09:17:50;;;;;;;9.35;5.75;;;;;;;;;;5033283;28;20044;-62
2022/07/25 09:20:16;;;;;;;9.40;5.00;;;;;;;;;;5033266;28;20064;-63
2022/07/25 09:22:43;;;;;;;8.60;5.35;;;;;;;;;;5033265;28;20381;-63
2022/07/25 09:25:19;;;;;;;7.28;4.10;;;;;;;;;;5033786;28;20029;-63
2022/07/25 09:27:45;;;;;;;6.63;5.10;;;;;;;;;;5033231;28;20041;-63
2022/07/25 09:30:12;;;;;;;5.03;3.80;;;;;;;;;;5032791;28;20513;-62
2022/07/25 09:32:38;;;;;;;6.78;4.15;;;;;;;;;;5031472;28;20105;-63
2022/07/25 09:35:05;;;;;;;8.68;5.05;;;;;;;;;;5033086;28;20028;-63
2022/07/25 09:37:31;;;;;;;9.95;5.22;;;;;;;;;;5032839;28;20034;-62
2022/07/25 09:39:57;;;;;;;13.23;5.47;;;;;;;;;;5032687;28;20108;-62
2022/07/25 09:42:24;;;;;;;8.13;5.30;;;;;;;;;;5032804;28;20029;-61
2022/07/25 09:45:10;;;;;;;8.43;5.40;;;;;;;;;;5032579;28;20075;-61
2022/07/25 09:47:37;;;;;;;9.70;5.50;;;;;;;;;;5032938;28;20026;-62
2022/07/25 09:50:03;;;;;;;9.40;5.60;;;;;;;;;;5032908;28;20025;-64
2022/07/25 09:52:30;;;;;;;8.23;5.45;;;;;;;;;;5032662;28;20033;-62
2022/07/25 09:54:56;;;;;;;6.82;5.32;;;;;;;;;;5031509;28;20519;-61
2022/07/25 09:57:23;;;;;;;12.00;6.47;;;;;;;;;;5031630;28;20041;-63
2022/07/25 09:59:49;;;;;;;8.98;5.03;;;;;;;;;;5031930;28;20025;-61
2022/07/25 10:02:21;;;;;;;9.63;5.18;;;;;;;;;;5031860;28;20029;-63
2022/07/25 10:04:59;;;;;;;8.07;5.28;;;;;;;;;;5030717;28;20068;-62
2022/07/25 10:07:25;;;;;;;10.57;5.65;;;;;;;;;;5031831;28;20029;-61
2022/07/25 10:09:54;;;;;;;8.82;4.97;;;;;;;;;;5031692;28;20033;-61
2022/07/25 10:12:22;;;;;;;7.75;4.70;;;;;;;;;;5031936;28;20025;-63
2022/07/25 10:15:04;;;;;;;7.25;5.20;;;;;;;;;;5032021;28;20037;-64
2022/07/25 10:17:31;;;;;;;8.35;4.50;;;;;;;;;;5025457;28;20488;-62
2022/07/25 10:19:57;;;;;;;9.90;4.80;;;;;;;;;;5031596;28;20405;-61
2022/07/25 10:22:23;;;;;;;7.07;4.13;;;;;;;;;;5032303;28;20037;-63
2022/07/25 10:24:49;;;;;;;6.90;4.28;;;;;;;;;;5030312;28;20362;-63
2022/07/25 10:27:22;;;;;;;5.38;4.43;;;;;;;;;;5031078;28;20033;-61
2022/07/25 10:29:54;;;;;;;5.18;4.00;;;;;;;;;;5030254;28;20032;-60
2022/07/25 10:32:25;;;;;;;7.80;4.32;;;;;;;;;;5030238;28;20037;-61
2022/07/25 10:34:54;;;;;;;8.48;4.53;;;;;;;;;;5018370;28;20041;-60
2022/07/25 10:37:26;;;;;;;8.88;5.20;;;;;;;;;;5020671;28;20029;-62
2022/07/25 10:39:52;;;;;;;;;;;;;;;;;;5022017;28;20025;-62
2022/07/25 10:42:22;;;;;;;6.28;4.68;;;;;;;;;;5020452;28;20341;-64
2022/07/25 10:44:48;;;;;;;8.85;4.40;;;;;;;;;;5030154;28;20076;-63
2022/07/25 10:47:15;;;;;;;6.68;4.50;;;;;;;;;;5029886;28;20053;-62
2022/07/25 10:49:46;;;;;;;6.35;4.40;;;;;;;;;;5031038;28;20527;-61
2022/07/25 10:52:17;;;;;;;11.15;4.47;;;;;;;;;;5031789;28;20049;-63
2022/07/25 10:54:52;;;;;;;6.70;4.57;;;;;;;;;;5031675;28;20381;-62
2022/07/25 10:57:18;;;;;;;5.82;4.15;;;;;;;;;;5030749;28;20431;-62
2022/07/25 10:59:45;;;;;;;6.57;4.57;;;;;;;;;;5030928;28;20025;-63
2022/07/25 11:02:18;;;;;;;5.88;4.53;;;;;;;;;;5031431;28;20025;-62
2022/07/25 11:05:00;;;;;;;6.03;4.63;;;;;;;;;;5030466;28;20025;-61
2022/07/25 11:07:27;;;;;;;8.93;5.20;;;;;;;;;;5027236;28;20079;-61
2022/07/25 11:09:57;;;;;;;9.10;4.93;;;;;;;;;;5030439;28;20033;-61
2022/07/25 11:12:23;;;;;;;9.23;5.13;;;;;;;;;;5030702;28;20042;-62
2022/07/25 11:14:49;;;;;;;8.20;4.63;;;;;;;;;;5018416;28;20030;-61
2022/07/25 11:17:23;;;;;;;7.10;4.40;;;;;;;;;;5016748;28;20034;-61
2022/07/25 11:19:53;;;;;;;6.88;4.95;;;;;;;;;;5030228;28;20079;-63
2022/07/25 11:22:19;;;;;;;8.02;4.50;;;;;;;;;;5030284;28;20496;-61
2022/07/25 11:24:46;;;;;;;5.57;4.32;;;;;;;;;;5027787;28;20072;-61
2022/07/25 11:27:19;;;;;;;7.38;4.53;;;;;;;;;;5031094;28;20044;-63
2022/07/25 11:29:45;;;;;;;5.05;4.10;;;;;;;;;;5020630;28;20057;-62
2022/07/25 11:32:12;;;;;;;6.05;3.90;;;;;;;;;;5016775;28;20049;-62
2022/07/25 11:34:43;;;;;;;10.50;4.35;;;;;;;;;;5011493;28;20034;-62
2022/07/25 11:37:09;;;;;;;7.18;4.20;;;;;;;;;;5016160;28;20083;-62
2022/07/25 11:39:36;;;;;;;6.10;4.80;;;;;;;;;;5031260;28;20033;-62
2022/07/25 11:42:02;;;;;;;7.95;4.93;;;;;;;;;;5031306;28;20032;-64
2022/07/25 11:44:32;;;;;;;4.65;4.22;;;;;;;;;;5029363;28;20026;-61
2022/07/25 11:46:58;;;;;;;4.72;4.07;;;;;;;;;;5018801;28;20025;-63
2022/07/25 11:49:25;;;;;;;4.75;3.92;;;;;;;;;;5029935;28;20481;-64
2022/07/25 11:51:51;;;;;;;6.72;4.57;;;;;;;;;;5030976;28;20039;-63
2022/07/25 11:54:17;;;;;;;6.07;4.72;;;;;;;;;;5030162;28;20025;-60
2022/07/25 11:56:45;;;;;;;5.10;4.10;;;;;;;;;;5030395;28;20042;-63
2022/07/25 11:59:12;;;;;;;8.75;4.20;;;;;;;;;;5030495;28;20025;-62
2022/07/25 12:01:39;;;;;;;6.97;4.15;;;;;;;;;;5018906;28;20462;-62
2022/07/25 12:04:13;;;;;;;7.32;4.18;;;;;;;;;;5018790;28;20428;-62
2022/07/25 12:06:39;;;;;;;8.88;4.63;;;;;;;;;;5011350;28;20064;-62
2022/07/25 12:09:12;;;;;;;9.07;4.70;;;;;;;;;;5010707;28;20088;-63
2022/07/25 12:11:38;;;;;;;6.03;4.97;;;;;;;;;;5027255;28;20485;-62
2022/07/25 12:14:05;;;;;;;9.57;5.20;;;;;;;;;;5029942;28;20029;-62
2022/07/25 12:16:31;;;;;;;7.50;4.57;;;;;;;;;;5030422;28;20026;-62
2022/07/25 12:18:58;;;;;;;5.57;4.20;;;;;;;;;;5032669;28;20025;-63
2022/07/25 12:21:25;;;;;;;7.25;4.32;;;;;;;;;;5033993;28;20025;-63
2022/07/25 12:23:51;;;;;;;6.35;4.55;;;;;;;;;;5032721;28;20029;-64
2022/07/25 12:26:17;;;;;;;10.70;4.30;;;;;;;;;;5033264;28;20029;-63
2022/07/25 12:28:43;;;;;;;7.72;3.92;;;;;;;;;;5024513;28;20124;-62
2022/07/25 12:31:09;;;;;;;6.65;3.80;;;;;;;;;;5022109;28;20057;-63
2022/07/25 12:33:36;;;;;;;9.63;4.38;;;;;;;;;;5018571;28;20061;-64
2022/07/25 12:36:03;;;;;;;6.10;3.92;;;;;;;;;;5030828;28;20041;-62
2022/07/25 12:38:29;;;;;;;5.03;3.97;;;;;;;;;;5022842;28;20484;-63
2022/07/25 12:40:55;;;;;;;6.70;4.47;;;;;;;;;;5021601;28;20034;-64
2022/07/25 12:43:21;;;;;;;6.47;4.38;;;;;;;;;;5013920;28;20378;-64
2022/07/25 12:45:47;;;;;;;7.68;4.50;;;;;;;;;;5014119;28;20030;-63
2022/07/25 12:48:14;;;;;;;5.57;4.55;;;;;;;;;;5014300;28;20030;-62
2022/07/25 12:50:41;;;;;;;8.60;5.07;;;;;;;;;;5012901;28;20131;-62
2022/07/25 12:53:07;;;;;;;7.80;5.32;;;;;;;;;;5014144;28;20530;-62
2022/07/25 12:55:33;;;;;;;9.60;4.90;;;;;;;;;;5014273;28;20037;-62
2022/07/25 12:57:59;;;;;;;6.35;4.22;;;;;;;;;;5014172;28;20032;-63
2022/07/25 13:00:26;;;;;;;6.28;4.30;;;;;;;;;;5014026;28;20056;-63
2022/07/25 13:02:54;;;;;;;9.18;4.43;;;;;;;;;;5013705;28;20457;-62
2022/07/25 13:05:21;;;;;;;7.13;4.60;;;;;;;;;;5013849;28;20030;-63
2022/07/25 13:07:48;;;;;;;5.68;4.40;;;;;;;;;;5013601;28;20068;-63
2022/07/25 13:10:14;;;;;;;5.35;4.72;;;;;;;;;;5013606;28;20030;-64
2022/07/25 13:12:40;;;;;;;7.35;4.38;;;;;;;;;;5013624;28;20505;-61
2022/07/25 13:15:07;;;;;;;8.35;4.20;;;;;;;;;;5013623;28;20022;-62
2022/07/25 13:17:33;;;;;;;6.85;4.03;;;;;;;;;;5013514;28;20030;-63
2022/07/25 13:19:59;;;;;;;6.85;4.05;;;;;;;;;;5013488;28;20033;-63
2022/07/25 13:22:25;;;;;;;5.03;4.45;;;;;;;;;;5013537;28;20034;-63
2022/07/25 13:24:51;;;;;;;6.78;4.75;;;;;;;;;;5013124;28;20421;-63
2022/07/25 13:27:18;;;;;;;7.95;4.72;;;;;;;;;;5013008;28;20029;-63
2022/07/25 13:29:44;;;;;;;5.97;4.68;;;;;;;;;;5013443;28;20040;-62
2022/07/25 13:32:10;;;;;;;7.15;4.60;;;;;;;;;;5012825;28;20049;-61
2022/07/25 13:34:36;;;;;;;6.78;4.25;;;;;;;;;;5012807;28;20017;-62
2022/07/25 13:37:03;;;;;;;6.72;4.68;;;;;;;;;;5012762;28;20034;-63
2022/07/25 13:39:29;;;;;;;7.90;4.45;;;;;;;;;;5013324;28;20025;-62
2022/07/25 13:41:55;;;;;;;7.28;5.00;;;;;;;;;;5013332;28;20033;-63
2022/07/25 13:44:21;;;;;;;5.13;3.83;;;;;;;;;;5013160;28;20026;-63
2022/07/25 13:46:50;;;;;;;6.97;4.28;;;;;;;;;;5013299;28;20108;-64
2022/07/25 13:49:17;;;;;;;6.47;4.35;;;;;;;;;;5013207;28;20028;-62
2022/07/25 13:51:44;;;;;;;5.43;4.35;;;;;;;;;;5013046;28;20046;-63
2022/07/25 13:54:10;;;;;;;6.88;4.80;;;;;;;;;;5013255;28;20014;-62
2022/07/25 13:56:36;;;;;;;6.82;4.57;;;;;;;;;;5012605;28;20033;-63
2022/07/25 13:59:03;;;;;;;4.97;4.10;;;;;;;;;;5012205;28;20022;-63
2022/07/25 14:01:29;;;;;;;6.55;4.35;;;;;;;;;;5012579;28;20440;-62
2022/07/25 14:03:55;;;;;;;6.18;4.78;;;;;;;;;;5012571;28;20029;-62
2022/07/25 14:06:21;;;;;;;7.85;4.30;;;;;;;;;;5012781;28;20057;-64
2022/07/25 14:08:47;;;;;;;9.57;4.50;;;;;;;;;;5013271;28;20022;-62
2022/07/25 14:11:13;;;;;;;5.43;4.30;;;;;;;;;;5012818;28;20057;-63
2022/07/25 14:13:39;;;;;;;6.25;4.60;;;;;;;;;;5012615;28;20141;-64
2022/07/25 14:16:06;;;;;;;6.45;4.30;;;;;;;;;;5012805;28;20058;-64
2022/07/25 14:18:32;;;;;;;7.05;4.68;;;;;;;;;;5012599;28;20500;-62
2022/07/25 14:20:58;;;;;;;7.15;3.80;;;;;;;;;;5012645;28;20034;-63
2022/07/25 14:23:24;;;;;;;6.88;4.40;;;;;;;;;;5012844;28;20037;-63
2022/07/25 14:25:51;;;;;;;12.93;5.18;;;;;;;;;;5012447;28;20037;-64
2022/07/25 14:28:17;;;;;;;6.10;4.10;;;;;;;;;;5012612;28;20057;-63
2022/07/25 14:30:43;;;;;;;6.78;4.28;;;;;;;;;;5012302;28;20081;-63
2022/07/25 14:33:09;;;;;;;5.30;4.28;;;;;;;;;;5012049;28;20477;-67
2022/07/25 14:35:35;;;;;;;4.95;3.88;;;;;;;;;;5012346;28;20022;-71
2022/07/25 14:38:01;;;;;;;4.90;3.67;;;;;;;;;;5012380;28;20034;-62
2022/07/25 14:40:27;;;;;;;6.03;3.38;;;;;;;;;;5011606;28;20034;-61
2022/07/25 14:42:53;;;;;;;6.90;3.47;;;;;;;;;;5012053;28;20025;-64
2022/07/25 14:45:20;;;;;;;5.38;3.80;;;;;;;;;;5011955;28;20088;-63
2022/07/25 14:47:46;;;;;;;5.70;3.67;;;;;;;;;;5011970;28;20478;-64
2022/07/25 14:50:13;;;;;;;4.90;3.40;;;;;;;;;;5011882;28;20532;-63
2022/07/25 14:52:39;;;;;;;4.40;3.42;;;;;;;;;;5011815;28;20030;-64
2022/07/25 14:55:05;;;;;;;5.47;3.40;;;;;;;;;;5011787;28;20025;-63
2022/07/25 14:57:31;;;;;;;5.53;3.20;;;;;;;;;;5012015;28;20038;-65
2022/07/25 15:00:00;;;;;;;4.40;3.50;;;;;;;;;;5011666;28;20030;-63
2022/07/25 15:02:27;;;;;;;3.92;3.50;;;;;;;;;;5011674;28;20494;-64
2022/07/25 15:04:53;;;;;;;7.38;3.80;;;;;;;;;;5012132;28;20030;-63
2022/07/25 15:07:19;;;;;;;4.57;3.35;;;;;;;;;;5031025;28;20037;-65
2022/07/25 15:09:45;;;;;;;4.28;3.33;;;;;;;;;;5031354;28;20531;-64
2022/07/25 15:12:13;;;;;;;6.53;3.38;;;;;;;;;;5031586;28;20048;-64
2022/07/25 15:14:40;;;;;;;4.60;3.25;;;;;;;;;;5031512;28;20026;-64
2022/07/25 15:17:06;;;;;;;6.28;3.70;;;;;;;;;;5031084;28;20053;-64
2022/07/25 15:19:32;;;;;;;6.20;3.80;;;;;;;;;;5031335;28;20025;-65
2022/07/25 15:21:58;;;;;;;5.15;3.70;;;;;;;;;;5031410;28;20095;-64
2022/07/25 15:24:24;;;;;;;5.20;3.47;;;;;;;;;;5031294;28;20060;-63
2022/07/25 15:26:50;;;;;;;4.88;3.58;;;;;;;;;;5031592;28;20040;-62
2022/07/25 15:29:19;;;;;;;5.95;3.28;;;;;;;;;;5031278;28;20560;-64
2022/07/25 15:31:46;;;;;;;3.58;3.10;;;;;;;;;;5030950;28;20053;-63
2022/07/25 15:34:12;;;;;;;6.75;3.30;;;;;;;;;;5030979;28;20061;-64
2022/07/25 15:36:38;;;;;;;5.88;3.50;;;;;;;;;;5031107;28;20068;-64
2022/07/25 15:39:08;;;;;;;4.53;3.05;;;;;;;;;;5031086;28;20056;-63
2022/07/25 15:41:34;;;;;;;3.88;3.13;;;;;;;;;;5031110;28;20037;-63
2022/07/25 15:44:00;;;;;;;4.97;2.90;;;;;;;;;;5030955;28;20091;-64
2022/07/25 15:46:27;;;;;;;4.07;3.13;;;;;;;;;;5031116;28;20044;-63
2022/07/25 15:48:54;;;;;;;4.30;3.35;;;;;;;;;;5030732;28;20024;-63
2022/07/25 15:51:20;;;;;;;3.95;3.00;;;;;;;;;;5030921;28;20033;-63
2022/07/25 15:53:46;;;;;;;9.80;3.50;;;;;;;;;;5034844;28;20018;-64
2022/07/25 15:56:15;;;;;;;3.67;2.85;;;;;;;;;;5034855;28;20116;-63
2022/07/25 15:58:41;;;;;;;2.80;2.45;;;;;;;;;;5034733;28;20499;-65
2022/07/25 16:01:08;;;;;;;3.65;2.90;;;;;;;;;;5033558;28;20401;-63
2022/07/25 16:03:34;;;;;;;4.10;3.25;;;;;;;;;;5034616;28;20033;-63
2022/07/25 16:06:00;;;;;;;4.63;3.10;;;;;;;;;;5034898;28;20033;-63
2022/07/25 16:08:26;;;;;;;4.05;3.10;;;;;;;;;;5034795;28;20120;-63
2022/07/25 16:10:52;;;;;;;3.50;2.72;;;;;;;;;;5034863;28;20033;-67
2022/07/25 16:13:18;;;;;;;3.83;3.08;;;;;;;;;;5034626;28;20029;-62
2022/07/25 16:15:44;;;;;;;3.78;3.00;;;;;;;;;;5034554;28;20040;-62
2022/07/25 16:18:10;;;;;;;5.50;3.42;;;;;;;;;;5034555;28;20021;-62
2022/07/25 16:20:36;;;;;;;5.88;2.97;;;;;;;;;;5034657;28;20048;-63
2022/07/25 16:23:02;;;;;;;6.07;2.95;;;;;;;;;;5034258;28;20033;-63
2022/07/25 16:25:29;;;;;;;5.35;3.10;;;;;;;;;;5034180;28;20500;-64
2022/07/25 16:27:55;;;;;;;7.32;3.25;;;;;;;;;;5034175;28;20040;-65
2022/07/25 16:30:21;;;;;;;5.85;3.75;;;;;;;;;;5034494;28;20035;-63
2022/07/25 16:32:47;;;;;;;4.45;3.30;;;;;;;;;;5034291;28;20385;-64
2022/07/25 16:35:13;;;;;;;5.03;3.40;;;;;;;;;;5034402;28;20021;-64
2022/07/25 16:37:41;;;;;;;5.57;3.30;;;;;;;;;;5034365;28;20160;-64
2022/07/25 16:40:07;;;;;;;3.47;2.78;;;;;;;;;;5034278;28;20049;-65
2022/07/25 16:42:33;;;;;;;6.18;3.05;;;;;;;;;;5033281;28;20514;-64
2022/07/25 16:44:59;;;;;;;4.00;3.30;;;;;;;;;;5033801;28;20051;-63
2022/07/25 16:47:25;;;;;;;6.45;2.97;;;;;;;;;;5034181;28;20025;-64
2022/07/25 16:49:51;;;;;;;6.40;2.97;;;;;;;;;;5033520;28;20151;-62
2022/07/25 16:52:18;;;;;;;12.75;2.90;;;;;;;;;;5033845;28;20139;-63
2022/07/25 16:54:44;;;;;;;4.68;3.30;;;;;;;;;;5033582;28;20037;-65
2022/07/25 16:57:10;;;;;;;4.63;3.15;;;;;;;;;;5027661;28;20080;-61
2022/07/25 16:59:36;;;;;;;3.47;2.70;;;;;;;;;;5033560;28;20104;-65
2022/07/25 17:02:02;;;;;;;6.88;3.10;;;;;;;;;;5032876;28;20388;-66
2022/07/25 17:04:28;;;;;;;6.97;2.78;;;;;;;;;;5032341;28;20052;-66
2022/07/25 17:06:55;;;;;;;3.65;2.70;;;;;;;;;;5033285;28;20048;-66
2022/07/25 17:09:21;;;;;;;5.28;2.75;;;;;;;;;;5022660;28;20099;-66
2022/07/25 17:11:48;;;;;;;8.57;3.13;;;;;;;;;;5024299;28;20044;-65
2022/07/25 17:14:14;;;;;;;3.75;3.05;;;;;;;;;;5013612;28;20032;-62
2022/07/25 17:16:40;;;;;;;4.97;3.13;;;;;;;;;;5013721;28;20101;-62
2022/07/25 17:19:06;;;;;;;5.95;2.95;;;;;;;;;;5021514;28;20037;-63
2022/07/25 17:21:32;;;;;;;3.80;3.20;;;;;;;;;;5033366;28;20117;-64
2022/07/25 17:23:58;;;;;;;3.90;2.80;;;;;;;;;;5033505;28;20052;-63
2022/07/25 17:26:25;;;;;;;4.82;3.40;;;;;;;;;;5033111;28;20029;-63
2022/07/25 17:28:52;;;;;;;5.45;3.20;;;;;;;;;;5033238;28;20072;-64
2022/07/25 17:31:18;;;;;;;7.13;3.47;;;;;;;;;;5033170;28;20114;-63
2022/07/25 17:33:44;;;;;;;4.15;3.00;;;;;;;;;;5032998;28;20026;-62
2022/07/25 17:36:10;;;;;;;6.15;3.50;;;;;;;;;;5032876;28;20112;-63
2022/07/25 17:38:37;;;;;;;4.40;3.22;;;;;;;;;;5032869;28;20029;-66
2022/07/25 17:41:03;;;;;;;5.60;3.30;;;;;;;;;;5033138;28;20025;-66
2022/07/25 17:43:29;;;;;;;4.88;3.30;;;;;;;;;;5033171;28;20064;-63
2022/07/25 17:45:55;;;;;;;4.28;3.40;;;;;;;;;;5032707;28;20029;-62
2022/07/25 17:48:22;;;;;;;7.43;3.28;;;;;;;;;;5032532;28;20041;-64
2022/07/25 17:50:48;;;;;;;5.63;2.85;;;;;;;;;;5032561;28;20037;-65
2022/07/25 17:53:16;;;;;;;4.82;3.20;;;;;;;;;;5032766;28;20037;-62
2022/07/25 17:55:42;;;;;;;4.53;3.20;;;;;;;;;;5032909;28;20059;-65
2022/07/25 17:58:09;;;;;;;4.68;3.33;;;;;;;;;;5032701;28;20057;-64
2022/07/25 18:00:35;;;;;;;4.75;3.42;;;;;;;;;;5032747;28;20067;-64
2022/07/25 18:03:02;;;;;;;5.28;3.55;;;;;;;;;;5032705;28;20052;-62
2022/07/25 18:05:28;;;;;;;5.53;3.78;;;;;;;;;;5031883;28;20029;-64
2022/07/25 18:07:54;;;;;;;9.63;4.10;;;;;;;;;;5032412;28;20036;-62
2022/07/25 18:10:20;;;;;;;5.30;4.20;;;;;;;;;;5032070;28;20405;-61
2022/07/25 18:12:47;;;;;;;7.80;4.00;;;;;;;;;;5032724;28;20411;-61
2022/07/25 18:15:13;;;;;;;7.15;4.43;;;;;;;;;;5031265;28;20026;-62
2022/07/25 18:17:46;;;;;;;6.43;4.50;;;;;;;;;;5032161;28;20382;-62
2022/07/25 18:20:13;;;;;;;9.80;5.45;;;;;;;;;;5031930;28;20418;-63
2022/07/25 18:22:42;;;;;;;10.13;4.45;;;;;;;;;;5032423;28;20035;-65
2022/07/25 18:25:10;;;;;;;9.15;5.10;;;;;;;;;;5032186;28;20029;-64
2022/07/25 18:27:36;;;;;;;9.60;5.53;;;;;;;;;;5030754;28;20530;-62
2022/07/25 18:30:04;;;;;;;9.40;5.10;;;;;;;;;;5031891;28;20064;-61
2022/07/25 18:32:31;;;;;;;8.73;5.50;;;;;;;;;;5032156;28;20033;-62
2022/07/25 18:34:57;;;;;;;9.48;6.70;;;;;;;;;;5031447;28;20478;-63
2022/07/25 18:37:23;;;;;;;11.45;6.03;;;;;;;;;;5031758;28;20084;-63
2022/07/25 18:39:49;;;;;;;14.57;6.65;;;;;;;;;;5031736;28;20025;-63
2022/07/25 18:42:15;;;;;;;12.63;7.53;;;;;;;;;;5032129;28;20044;-63
2022/07/25 18:44:41;;;;;;;8.50;6.05;;;;;;;;;;5031874;28;20097;-63
2022/07/25 18:47:07;;;;;;;8.32;5.35;;;;;;;;;;5031683;28;20100;-62
2022/07/25 18:49:33;;;;;;;8.82;5.65;;;;;;;;;;5031872;28;20393;-62
2022/07/25 18:51:59;;;;;;;8.93;5.50;;;;;;;;;;5031772;28;20029;-63
2022/07/25 18:54:25;;;;;;;7.40;5.15;;;;;;;;;;5031668;28;20477;-61
2022/07/25 18:56:51;;;;;;;11.68;6.40;;;;;;;;;;5031725;28;20036;-61
2022/07/25 18:59:17;;;;;;;8.30;5.63;;;;;;;;;;5031617;28;20112;-61
2022/07/25 19:01:44;;;;;;;10.77;6.28;;;;;;;;;;5031854;28;20451;-62
2022/07/25 19:04:10;;;;;;;10.05;5.93;;;;;;;;;;5031143;28;20025;-62
2022/07/25 19:06:36;;;;;;;10.40;6.30;;;;;;;;;;5031375;28;20029;-61
2022/07/25 19:09:02;;;;;;;9.88;6.47;;;;;;;;;;5031401;28;20029;-65
2022/07/25 19:11:28;;;;;;;13.40;6.30;;;;;;;;;;5031243;28;20033;-63
2022/07/25 19:13:54;;;;;;;8.73;5.68;;;;;;;;;;5031414;28;20025;-64
2022/07/25 19:16:21;;;;;;;10.57;6.45;;;;;;;;;;5031384;28;20036;-64
2022/07/25 19:18:47;;;;;;;10.63;6.57;;;;;;;;;;5031133;28;20032;-63
2022/07/25 19:21:13;;;;;;;11.30;6.15;;;;;;;;;;5031149;28;20040;-63
2022/07/25 19:23:39;;;;;;;11.55;6.63;;;;;;;;;;5031313;28;20025;-64
2022/07/25 19:26:05;;;;;;;12.45;6.13;;;;;;;;;;5031133;28;20326;-63
2022/07/25 19:28:31;;;;;;;11.23;6.15;;;;;;;;;;5031214;28;20026;-62
2022/07/25 19:30:58;;;;;;;18.80;7.07;;;;;;;;;;5030885;28;20046;-64
2022/07/25 19:33:24;;;;;;;20.00;7.38;;;;;;;;;;5031088;28;20021;-61
2022/07/25 19:35:50;;;;;;;11.80;6.28;;;;;;;;;;5030870;28;20035;-63
2022/07/25 19:38:16;;;;;;;14.02;7.50;;;;;;;;;;5031087;28;20428;-64
2022/07/25 19:40:42;;;;;;;10.77;6.45;;;;;;;;;;5031144;28;20045;-62
2022/07/25 19:43:09;;;;;;;9.32;6.05;;;;;;;;;;5031082;28;20030;-64
2022/07/25 19:45:37;;;;;;;11.52;6.50;;;;;;;;;;5029842;28;20022;-64
2022/07/25 19:48:03;;;;;;;12.52;8.10;;;;;;;;;;5029664;28;20493;-64
2022/07/25 19:50:29;;;;;;;19.13;9.02;;;;;;;;;;5030952;28;20390;-63
2022/07/25 19:52:55;;;;;;;15.20;7.78;;;;;;;;;;5031020;28;20083;-63
2022/07/25 19:55:22;;;;;;;21.08;9.32;;;;;;;;;;5030831;28;20030;-63
2022/07/25 19:57:48;;;;;;;18.83;8.23;;;;;;;;;;5030672;28;20030;-64
2022/07/25 20:00:14;;;;;;;15.55;7.47;;;;;;;;;;5030649;28;20029;-63
2022/07/25 20:02:40;;;;;;;11.70;7.35;;;;;;;;;;5030555;28;20363;-64
2022/07/25 20:05:07;;;;;;;18.13;8.05;;;;;;;;;;5030408;28;20032;-64
2022/07/25 20:07:33;;;;;;;18.75;9.18;;;;;;;;;;5030626;28;20022;-63
2022/07/25 20:09:59;;;;;;;19.55;8.55;;;;;;;;;;5030518;28;20030;-63
2022/07/25 20:12:25;;;;;;;14.05;8.45;;;;;;;;;;5030081;28;20037;-63
2022/07/25 20:14:51;;;;;;;9.45;7.15;;;;;;;;;;5030776;28;20030;-64
2022/07/25 20:17:18;;;;;;;10.55;6.85;;;;;;;;;;5030669;28;20056;-65
2022/07/25 20:19:44;;;;;;;10.98;6.80;;;;;;;;;;5030630;28;20071;-63
2022/07/25 20:22:10;;;;;;;9.98;6.28;;;;;;;;;;5030520;28;20424;-63
2022/07/25 20:24:36;;;;;;;16.17;8.90;;;;;;;;;;5030340;28;20025;-64
2022/07/25 20:27:02;;;;;;;21.00;10.02;;;;;;;;;;5030204;28;20033;-63
2022/07/25 20:29:28;;;;;;;16.50;8.00;;;;;;;;;;5030595;28;20095;-64
2022/07/25 20:31:54;;;;;;;17.35;8.07;;;;;;;;;;5030272;28;20119;-63
2022/07/25 20:34:20;;;;;;;21.70;9.50;;;;;;;;;;5030172;28;20060;-66
2022/07/25 20:36:46;;;;;;;17.60;9.38;;;;;;;;;;5030519;28;20060;-64
2022/07/25 20:39:12;;;;;;;17.33;7.82;;;;;;;;;;5031338;28;20072;-63
2022/07/25 20:41:39;;;;;;;13.82;8.50;;;;;;;;;;5034323;28;20466;-63
2022/07/25 20:44:05;;;;;;;17.00;9.50;;;;;;;;;;5034106;28;20083;-63
2022/07/25 20:46:34;;;;;;;12.68;8.55;;;;;;;;;;5034188;28;20548;-63
2022/07/25 20:49:01;;;;;;;12.35;7.50;;;;;;;;;;5034015;28;20057;-64
2022/07/25 20:51:27;;;;;;;12.05;7.32;;;;;;;;;;5033550;28;20125;-64
2022/07/25 20:53:53;;;;;;;13.45;8.02;;;;;;;;;;5033331;28;20037;-64
2022/07/25 20:56:19;;;;;;;19.55;7.75;;;;;;;;;;5033914;28;20037;-63
2022/07/25 20:58:45;;;;;;;18.90;8.57;;;;;;;;;;5033712;28;20029;-63
2022/07/25 21:01:11;;;;;;;12.65;7.30;;;;;;;;;;5033627;28;20133;-63
2022/07/25 21:03:37;;;;;;;14.48;8.07;;;;;;;;;;5033515;28;20460;-64
2022/07/25 21:06:03;;;;;;;12.77;7.32;;;;;;;;;;5033243;28;20396;-63
2022/07/25 21:08:29;;;;;;;8.77;6.25;;;;;;;;;;5033743;28;20026;-63
2022/07/25 21:10:57;;;;;;;11.38;6.45;;;;;;;;;;5033338;28;20084;-65
2022/07/25 21:13:23;;;;;;;14.25;7.07;;;;;;;;;;5033848;28;20068;-64
2022/07/25 21:15:49;;;;;;;13.43;7.15;;;;;;;;;;5033576;28;20021;-63
2022/07/25 21:18:15;;;;;;;14.20;7.75;;;;;;;;;;5033392;28;20022;-63
2022/07/25 21:20:41;;;;;;;13.18;7.30;;;;;;;;;;5032874;28;20036;-63
2022/07/25 21:23:08;;;;;;;11.15;7.65;;;;;;;;;;5033401;28;20037;-63
2022/07/25 21:25:34;;;;;;;16.92;8.43;;;;;;;;;;5033458;28;20064;-63
2022/07/25 21:28:00;;;;;;;13.77;7.63;;;;;;;;;;5032894;28;20030;-63
2022/07/25 21:30:26;;;;;;;11.95;8.52;;;;;;;;;;5032841;28;20044;-64
2022/07/25 21:32:52;;;;;;;13.77;7.43;;;;;;;;;;5033431;28;20025;-63
2022/07/25 21:35:18;;;;;;;11.90;7.47;;;;;;;;;;5033044;28;20046;-64
2022/07/25 21:37:44;;;;;;;11.15;6.57;;;;;;;;;;5032946;28;20037;-64
2022/07/25 21:40:10;;;;;;;11.75;6.97;;;;;;;;;;5032422;28;20018;-62
2022/07/25 21:42:36;;;;;;;10.52;7.15;;;;;;;;;;5030752;28;20116;-65
2022/07/25 21:45:03;;;;;;;12.27;7.57;;;;;;;;;;5032789;28;20412;-63
2022/07/25 21:47:29;;;;;;;15.63;8.15;;;;;;;;;;5032777;28;20556;-63
2022/07/25 21:52:39;;;;;;;11.25;7.97;;;;;;;;;;5031712;28;20115;-63
2022/07/25 21:55:05;;;;;;;14.77;8.38;;;;;;;;;;5031969;28;20029;-63
2022/07/25 21:57:32;;;;;;;12.82;7.85;;;;;;;;;;5031635;28;20117;-63
2022/07/25 21:59:58;;;;;;;15.38;7.50;;;;;;;;;;5031965;28;20489;-64
2022/07/25 22:02:24;;;;;;;15.82;8.00;;;;;;;;;;5032427;28;20029;-63
2022/07/25 22:04:50;;;;;;;13.85;7.20;;;;;;;;;;5031345;28;20025;-66
2022/07/25 22:07:17;;;;;;;9.50;6.97;;;;;;;;;;5031455;28;20036;-65
2022/07/25 22:09:43;;;;;;;12.70;7.30;;;;;;;;;;5031789;28;20026;-64
2022/07/25 22:12:09;;;;;;;18.23;7.85;;;;;;;;;;5031655;28;20037;-64
2022/07/25 22:14:36;;;;;;;16.40;7.93;;;;;;;;;;5030633;28;20013;-63